sensor_id;sensor_type;location;lat;lon;timestamp;pressure;altitude;pressure_sealevel;temperature;humidity
81057;BME280;70563;50.084;14.468;2023-08-17T00:02:05;98918.69;;;18.74;94.55
81057;BME280;70563;50.084;14.468;2023-08-17T00:04:30;98924.47;;;18.71;94.97
81057;BME280;70563;50.084;14.468;2023-08-17T00:06:55;98923.66;;;18.71;95.49
81057;BME280;70563;50.084;14.468;2023-08-17T00:09:21;98921.56;;;18.73;94.23
81057;BME280;70563;50.084;14.468;2023-08-17T00:11:47;98920.75;;;18.72;95.13
81057;BME280;70563;50.084;14.468;2023-08-17T00:14:12;98913.84;;;18.65;95.19
81057;BME280;70563;50.084;14.468;2023-08-17T00:16:38;98913.84;;;18.65;95.33
81057;BME280;70563;50.084;14.468;2023-08-17T00:19:03;98919.75;;;18.55;95.96
81057;BME280;70563;50.084;14.468;2023-08-17T00:21:29;98915.34;;;18.49;96.08
81057;BME280;70563;50.084;14.468;2023-08-17T00:23:54;98911.25;;;18.46;96.39
81057;BME280;70563;50.084;14.468;2023-08-17T00:26:19;98913.13;;;18.46;96.66
81057;BME280;70563;50.084;14.468;2023-08-17T00:28:45;98915.88;;;18.39;97.01
81057;BME280;70563;50.084;14.468;2023-08-17T00:31:10;98912.13;;;18.28;97.00
81057;BME280;70563;50.084;14.468;2023-08-17T00:33:36;98916.97;;;18.20;96.77
81057;BME280;70563;50.084;14.468;2023-08-17T00:36:01;98922.09;;;18.21;97.46
81057;BME280;70563;50.084;14.468;2023-08-17T00:38:26;98919.41;;;18.21;97.66
81057;BME280;70563;50.084;14.468;2023-08-17T00:40:52;98917.34;;;18.23;97.70
81057;BME280;70563;50.084;14.468;2023-08-17T00:43:17;98912.00;;;18.23;98.01
81057;BME280;70563;50.084;14.468;2023-08-17T00:45:44;98904.19;;;18.22;98.12
81057;BME280;70563;50.084;14.468;2023-08-17T00:48:11;98903.19;;;18.23;98.58
81057;BME280;70563;50.084;14.468;2023-08-17T00:50:38;98913.38;;;18.26;98.56
81057;BME280;70563;50.084;14.468;2023-08-17T00:53:04;98915.13;;;18.20;98.46
81057;BME280;70563;50.084;14.468;2023-08-17T00:55:30;98913.50;;;18.19;98.33
81057;BME280;70563;50.084;14.468;2023-08-17T00:57:56;98907.22;;;18.25;98.44
81057;BME280;70563;50.084;14.468;2023-08-17T01:00:24;98907.53;;;18.17;98.25
81057;BME280;70563;50.084;14.468;2023-08-17T01:02:53;98916.72;;;18.10;98.61
81057;BME280;70563;50.084;14.468;2023-08-17T01:05:18;98917.06;;;18.13;98.87
81057;BME280;70563;50.084;14.468;2023-08-17T01:07:44;98919.06;;;18.18;98.86
81057;BME280;70563;50.084;14.468;2023-08-17T01:10:10;98910.69;;;18.14;98.51
81057;BME280;70563;50.084;14.468;2023-08-17T01:12:44;98911.59;;;18.08;98.48
81057;BME280;70563;50.084;14.468;2023-08-17T01:15:24;98914.63;;;18.12;99.18
81057;BME280;70563;50.084;14.468;2023-08-17T01:20:43;98910.03;;;18.30;98.69
81057;BME280;70563;50.084;14.468;2023-08-17T01:23:09;98909.47;;;18.28;98.57
81057;BME280;70563;50.084;14.468;2023-08-17T01:25:34;98910.63;;;18.33;97.94
81057;BME280;70563;50.084;14.468;2023-08-17T01:28:03;98897.81;;;18.23;98.21
81057;BME280;70563;50.084;14.468;2023-08-17T01:30:30;98894.66;;;18.14;98.24
81057;BME280;70563;50.084;14.468;2023-08-17T01:33:03;98896.22;;;18.03;98.71
81057;BME280;70563;50.084;14.468;2023-08-17T01:35:46;98897.66;;;18.06;98.73
81057;BME280;70563;50.084;14.468;2023-08-17T01:38:17;98898.31;;;18.01;99.20
81057;BME280;70563;50.084;14.468;2023-08-17T01:40:45;98896.84;;;18.05;98.91
81057;BME280;70563;50.084;14.468;2023-08-17T01:43:11;98895.84;;;18.00;99.04
81057;BME280;70563;50.084;14.468;2023-08-17T01:45:37;98890.53;;;18.00;99.38
81057;BME280;70563;50.084;14.468;2023-08-17T01:48:02;98897.03;;;18.04;99.58
81057;BME280;70563;50.084;14.468;2023-08-17T01:50:28;98889.03;;;18.04;99.92
81057;BME280;70563;50.084;14.468;2023-08-17T01:52:53;98883.47;;;18.05;99.44
81057;BME280;70563;50.084;14.468;2023-08-17T01:55:21;98884.19;;;18.13;99.54
81057;BME280;70563;50.084;14.468;2023-08-17T01:57:46;98874.16;;;18.08;99.52
81057;BME280;70563;50.084;14.468;2023-08-17T02:00:12;98861.88;;;18.07;99.47
81057;BME280;70563;50.084;14.468;2023-08-17T02:02:37;98866.41;;;18.07;99.39
81057;BME280;70563;50.084;14.468;2023-08-17T02:05:03;98858.56;;;17.93;99.83
81057;BME280;70563;50.084;14.468;2023-08-17T02:07:28;98862.97;;;17.88;99.69
81057;BME280;70563;50.084;14.468;2023-08-17T02:09:54;98871.50;;;17.78;99.98
81057;BME280;70563;50.084;14.468;2023-08-17T02:12:19;98864.66;;;17.82;100.00
81057;BME280;70563;50.084;14.468;2023-08-17T02:14:45;98859.31;;;17.82;99.96
81057;BME280;70563;50.084;14.468;2023-08-17T02:17:10;98861.25;;;17.93;100.00
81057;BME280;70563;50.084;14.468;2023-08-17T02:19:35;98865.59;;;18.06;100.00
81057;BME280;70563;50.084;14.468;2023-08-17T02:22:01;98864.78;;;18.17;99.47
81057;BME280;70563;50.084;14.468;2023-08-17T02:24:27;98870.78;;;18.31;98.35
81057;BME280;70563;50.084;14.468;2023-08-17T02:26:52;98875.03;;;18.20;98.06
81057;BME280;70563;50.084;14.468;2023-08-17T02:29:17;98882.50;;;18.00;98.89
81057;BME280;70563;50.084;14.468;2023-08-17T02:31:43;98887.81;;;17.88;99.86
81057;BME280;70563;50.084;14.468;2023-08-17T02:34:08;98887.00;;;17.88;99.87
81057;BME280;70563;50.084;14.468;2023-08-17T02:36:34;98888.81;;;18.05;99.44
81057;BME280;70563;50.084;14.468;2023-08-17T02:39:00;98881.31;;;17.96;99.18
81057;BME280;70563;50.084;14.468;2023-08-17T02:41:25;98886.84;;;17.83;99.71
81057;BME280;70563;50.084;14.468;2023-08-17T02:43:50;98881.81;;;17.74;99.81
81057;BME280;70563;50.084;14.468;2023-08-17T02:46:16;98871.88;;;17.63;100.00
81057;BME280;70563;50.084;14.468;2023-08-17T02:48:41;98876.84;;;17.60;100.00
81057;BME280;70563;50.084;14.468;2023-08-17T02:51:06;98876.16;;;17.64;100.00
81057;BME280;70563;50.084;14.468;2023-08-17T02:53:32;98887.66;;;17.65;100.00
81057;BME280;70563;50.084;14.468;2023-08-17T02:55:57;98879.28;;;17.61;100.00
81057;BME280;70563;50.084;14.468;2023-08-17T02:58:22;98881.59;;;17.58;100.00
81057;BME280;70563;50.084;14.468;2023-08-17T03:00:51;98884.19;;;17.46;100.00
81057;BME280;70563;50.084;14.468;2023-08-17T03:03:16;98879.66;;;17.46;100.00
81057;BME280;70563;50.084;14.468;2023-08-17T03:05:41;98881.44;;;17.52;100.00
81057;BME280;70563;50.084;14.468;2023-08-17T03:08:06;98885.81;;;17.47;100.00
81057;BME280;70563;50.084;14.468;2023-08-17T03:10:32;98883.81;;;17.42;100.00
81057;BME280;70563;50.084;14.468;2023-08-17T03:12:57;98883.06;;;17.35;100.00
81057;BME280;70563;50.084;14.468;2023-08-17T03:15:22;98899.31;;;17.34;100.00
81057;BME280;70563;50.084;14.468;2023-08-17T03:17:48;98892.34;;;17.33;100.00
81057;BME280;70563;50.084;14.468;2023-08-17T03:20:13;98894.63;;;17.29;100.00
81057;BME280;70563;50.084;14.468;2023-08-17T03:22:38;98888.34;;;17.23;100.00
81057;BME280;70563;50.084;14.468;2023-08-17T03:25:04;98885.81;;;17.28;100.00
81057;BME280;70563;50.084;14.468;2023-08-17T03:27:30;98886.53;;;17.36;100.00
81057;BME280;70563;50.084;14.468;2023-08-17T03:29:55;98897.81;;;17.38;100.00
81057;BME280;70563;50.084;14.468;2023-08-17T03:32:21;98893.81;;;17.28;100.00
81057;BME280;70563;50.084;14.468;2023-08-17T03:34:46;98895.31;;;17.24;100.00
81057;BME280;70563;50.084;14.468;2023-08-17T03:37:12;98895.31;;;17.24;100.00
81057;BME280;70563;50.084;14.468;2023-08-17T03:39:37;98896.53;;;17.22;100.00
81057;BME280;70563;50.084;14.468;2023-08-17T03:42:02;98901.44;;;17.25;100.00
81057;BME280;70563;50.084;14.468;2023-08-17T03:44:28;98908.22;;;17.27;100.00
81057;BME280;70563;50.084;14.468;2023-08-17T03:46:53;98907.59;;;17.25;100.00
81057;BME280;70563;50.084;14.468;2023-08-17T03:49:18;98903.59;;;17.35;100.00
81057;BME280;70563;50.084;14.468;2023-08-17T03:51:44;98902.78;;;17.34;100.00
81057;BME280;70563;50.084;14.468;2023-08-17T03:54:09;98900.41;;;17.26;100.00
81057;BME280;70563;50.084;14.468;2023-08-17T03:56:34;98903.31;;;17.24;100.00
81057;BME280;70563;50.084;14.468;2023-08-17T03:59:00;98912.28;;;17.30;100.00
81057;BME280;70563;50.084;14.468;2023-08-17T04:01:25;98909.41;;;17.32;100.00
81057;BME280;70563;50.084;14.468;2023-08-17T04:03:50;98909.75;;;17.35;100.00
81057;BME280;70563;50.084;14.468;2023-08-17T04:06:16;98914.06;;;17.36;100.00
81057;BME280;70563;50.084;14.468;2023-08-17T04:08:41;98917.59;;;17.30;100.00
81057;BME280;70563;50.084;14.468;2023-08-17T04:11:06;98921.75;;;17.26;100.00
81057;BME280;70563;50.084;14.468;2023-08-17T04:13:32;98922.94;;;17.30;100.00
81057;BME280;70563;50.084;14.468;2023-08-17T04:15:58;98925.84;;;17.28;100.00
81057;BME280;70563;50.084;14.468;2023-08-17T04:18:23;98923.31;;;17.34;100.00
81057;BME280;70563;50.084;14.468;2023-08-17T04:20:48;98926.03;;;17.27;100.00
81057;BME280;70563;50.084;14.468;2023-08-17T04:23:14;98926.13;;;17.39;100.00
81057;BME280;70563;50.084;14.468;2023-08-17T04:25:40;98930.91;;;17.37;100.00
81057;BME280;70563;50.084;14.468;2023-08-17T04:28:05;98935.19;;;17.38;100.00
81057;BME280;70563;50.084;14.468;2023-08-17T04:30:31;98939.63;;;17.44;100.00
81057;BME280;70563;50.084;14.468;2023-08-17T04:32:56;98946.03;;;17.43;100.00
81057;BME280;70563;50.084;14.468;2023-08-17T04:35:22;98942.78;;;17.41;100.00
81057;BME280;70563;50.084;14.468;2023-08-17T04:37:48;98944.97;;;17.44;100.00
81057;BME280;70563;50.084;14.468;2023-08-17T04:40:14;98936.16;;;17.43;100.00
81057;BME280;70563;50.084;14.468;2023-08-17T04:42:39;98937.56;;;17.46;100.00
81057;BME280;70563;50.084;14.468;2023-08-17T04:45:05;98935.06;;;17.51;100.00
81057;BME280;70563;50.084;14.468;2023-08-17T04:47:31;98937.16;;;17.49;100.00
81057;BME280;70563;50.084;14.468;2023-08-17T04:49:56;98949.00;;;17.53;100.00
81057;BME280;70563;50.084;14.468;2023-08-17T04:52:21;98949.16;;;17.58;99.95
81057;BME280;70563;50.084;14.468;2023-08-17T04:54:47;98951.34;;;17.61;99.48
81057;BME280;70563;50.084;14.468;2023-08-17T04:57:12;98960.69;;;17.77;99.51
81057;BME280;70563;50.084;14.468;2023-08-17T04:59:38;98958.97;;;17.83;98.12
81057;BME280;70563;50.084;14.468;2023-08-17T05:02:03;98958.97;;;17.83;97.42
81057;BME280;70563;50.084;14.468;2023-08-17T05:04:29;98976.16;;;17.87;98.61
81057;BME280;70563;50.084;14.468;2023-08-17T05:06:56;98973.44;;;17.93;98.40
81057;BME280;70563;50.084;14.468;2023-08-17T05:09:21;98980.03;;;18.09;97.87
81057;BME280;70563;50.084;14.468;2023-08-17T05:11:47;98980.69;;;18.23;96.17
81057;BME280;70563;50.084;14.468;2023-08-17T05:14:12;98983.38;;;18.35;96.01
81057;BME280;70563;50.084;14.468;2023-08-17T05:16:38;98983.06;;;18.43;95.61
81057;BME280;70563;50.084;14.468;2023-08-17T05:19:03;98975.53;;;18.51;95.06
81057;BME280;70563;50.084;14.468;2023-08-17T05:21:29;98982.19;;;18.61;94.96
81057;BME280;70563;50.084;14.468;2023-08-17T05:23:55;98984.75;;;18.86;94.11
81057;BME280;70563;50.084;14.468;2023-08-17T05:26:20;98983.84;;;19.03;93.02
81057;BME280;70563;50.084;14.468;2023-08-17T05:28:45;98982.13;;;19.09;91.44
81057;BME280;70563;50.084;14.468;2023-08-17T05:31:11;98982.59;;;19.18;91.13
81057;BME280;70563;50.084;14.468;2023-08-17T05:33:36;98983.88;;;19.39;90.11
81057;BME280;70563;50.084;14.468;2023-08-17T05:36:02;98990.31;;;20.13;86.46
81057;BME280;70563;50.084;14.468;2023-08-17T05:38:28;98987.38;;;21.00;82.15
81057;BME280;70563;50.084;14.468;2023-08-17T05:40:57;98989.56;;;21.20;79.50
81057;BME280;70563;50.084;14.468;2023-08-17T05:43:23;98985.16;;;21.87;76.80
81057;BME280;70563;50.084;14.468;2023-08-17T05:45:49;98988.84;;;22.02;75.80
81057;BME280;70563;50.084;14.468;2023-08-17T05:48:14;98987.41;;;21.95;75.94
81057;BME280;70563;50.084;14.468;2023-08-17T05:50:43;98985.25;;;22.63;73.62
81057;BME280;70563;50.084;14.468;2023-08-17T05:53:08;98981.84;;;23.37;69.88
81057;BME280;70563;50.084;14.468;2023-08-17T05:55:34;98979.13;;;23.79;68.26
81057;BME280;70563;50.084;14.468;2023-08-17T05:58:00;98993.88;;;24.19;66.06
81057;BME280;70563;50.084;14.468;2023-08-17T06:00:25;98993.31;;;24.17;66.14
81057;BME280;70563;50.084;14.468;2023-08-17T06:02:51;98996.47;;;24.76;64.50
81057;BME280;70563;50.084;14.468;2023-08-17T06:05:25;98998.06;;;25.54;61.80
81057;BME280;70563;50.084;14.468;2023-08-17T06:07:51;98997.97;;;25.95;59.36
81057;BME280;70563;50.084;14.468;2023-08-17T06:10:17;98999.22;;;26.23;58.39
81057;BME280;70563;50.084;14.468;2023-08-17T06:12:42;98994.56;;;26.34;57.96
81057;BME280;70563;50.084;14.468;2023-08-17T06:15:08;98989.13;;;27.22;55.54
81057;BME280;70563;50.084;14.468;2023-08-17T06:17:33;98995.16;;;27.96;52.50
81057;BME280;70563;50.084;14.468;2023-08-17T06:19:59;98985.75;;;27.36;53.75
81057;BME280;70563;50.084;14.468;2023-08-17T06:22:24;98985.00;;;27.83;52.59
81057;BME280;70563;50.084;14.468;2023-08-17T06:24:50;98988.28;;;28.23;50.86
81057;BME280;70563;50.084;14.468;2023-08-17T06:27:15;98991.03;;;28.80;49.14
81057;BME280;70563;50.084;14.468;2023-08-17T06:29:41;98991.22;;;29.67;46.98
81057;BME280;70563;50.084;14.468;2023-08-17T06:32:07;98994.88;;;28.60;49.05
81057;BME280;70563;50.084;14.468;2023-08-17T06:34:33;98985.34;;;29.14;48.25
81057;BME280;70563;50.084;14.468;2023-08-17T06:37:01;98985.66;;;30.00;45.42
81057;BME280;70563;50.084;14.468;2023-08-17T06:39:27;98985.06;;;30.03;45.50
81057;BME280;70563;50.084;14.468;2023-08-17T06:41:52;98976.41;;;30.01;45.84
81057;BME280;70563;50.084;14.468;2023-08-17T06:44:18;98972.88;;;30.87;43.91
81057;BME280;70563;50.084;14.468;2023-08-17T06:46:43;98969.09;;;30.38;44.71
81057;BME280;70563;50.084;14.468;2023-08-17T06:49:11;98965.56;;;30.37;44.44
81057;BME280;70563;50.084;14.468;2023-08-17T06:51:36;98964.47;;;30.97;43.53
81057;BME280;70563;50.084;14.468;2023-08-17T06:54:02;98960.00;;;32.20;39.27
81057;BME280;70563;50.084;14.468;2023-08-17T06:56:27;98961.09;;;32.02;40.05
81057;BME280;70563;50.084;14.468;2023-08-17T06:58:52;98958.72;;;32.09;39.26
81057;BME280;70563;50.084;14.468;2023-08-17T07:01:18;98960.50;;;32.22;39.14
81057;BME280;70563;50.084;14.468;2023-08-17T07:03:43;98958.88;;;32.04;39.43
81057;BME280;70563;50.084;14.468;2023-08-17T07:06:10;98963.91;;;32.71;38.05
81057;BME280;70563;50.084;14.468;2023-08-17T07:08:35;98966.63;;;32.89;37.58
81057;BME280;70563;50.084;14.468;2023-08-17T07:11:01;98962.44;;;32.31;38.61
81057;BME280;70563;50.084;14.468;2023-08-17T07:13:26;98962.19;;;33.40;36.32
81057;BME280;70563;50.084;14.468;2023-08-17T07:15:52;98967.31;;;33.50;35.80
81057;BME280;70563;50.084;14.468;2023-08-17T07:18:18;98966.88;;;33.48;35.39
81057;BME280;70563;50.084;14.468;2023-08-17T07:20:43;98964.25;;;34.82;33.29
81057;BME280;70563;50.084;14.468;2023-08-17T07:23:08;98968.28;;;34.85;32.51
81057;BME280;70563;50.084;14.468;2023-08-17T07:25:34;98968.94;;;35.73;31.67
81057;BME280;70563;50.084;14.468;2023-08-17T07:27:59;98973.25;;;35.37;32.06
81057;BME280;70563;50.084;14.468;2023-08-17T07:30:24;98979.41;;;35.34;31.24
81057;BME280;70563;50.084;14.468;2023-08-17T07:32:50;98979.50;;;36.88;29.13
81057;BME280;70563;50.084;14.468;2023-08-17T07:35:16;98977.16;;;36.09;29.85
81057;BME280;70563;50.084;14.468;2023-08-17T07:37:41;98973.78;;;36.53;28.89
81057;BME280;70563;50.084;14.468;2023-08-17T07:40:07;98979.63;;;37.51;27.47
81057;BME280;70563;50.084;14.468;2023-08-17T07:42:33;98986.31;;;38.17;26.11
81057;BME280;70563;50.084;14.468;2023-08-17T07:44:58;98979.19;;;36.37;28.97
81057;BME280;70563;50.084;14.468;2023-08-17T07:47:24;98984.50;;;37.74;26.73
81057;BME280;70563;50.084;14.468;2023-08-17T07:49:49;98987.47;;;38.16;26.30
81057;BME280;70563;50.084;14.468;2023-08-17T07:52:15;98981.97;;;38.71;25.16
81057;BME280;70563;50.084;14.468;2023-08-17T07:54:41;98976.81;;;38.50;25.61
81057;BME280;70563;50.084;14.468;2023-08-17T07:57:06;98972.19;;;38.54;25.67
81057;BME280;70563;50.084;14.468;2023-08-17T07:59:31;98978.09;;;37.38;27.15
81057;BME280;70563;50.084;14.468;2023-08-17T08:01:57;98981.22;;;37.84;26.31
81057;BME280;70563;50.084;14.468;2023-08-17T08:04:22;98974.28;;;37.27;27.01
81057;BME280;70563;50.084;14.468;2023-08-17T08:06:48;98962.75;;;36.00;29.01
81057;BME280;70563;50.084;14.468;2023-08-17T08:09:13;98963.59;;;35.31;29.93
81057;BME280;70563;50.084;14.468;2023-08-17T08:11:38;98962.84;;;33.45;33.60
81057;BME280;70563;50.084;14.468;2023-08-17T08:14:04;98960.16;;;35.22;30.50
81057;BME280;70563;50.084;14.468;2023-08-17T08:16:29;98966.47;;;34.26;32.27
81057;BME280;70563;50.084;14.468;2023-08-17T08:18:57;98958.13;;;34.64;31.58
81057;BME280;70563;50.084;14.468;2023-08-17T08:21:23;98962.97;;;35.95;29.57
81057;BME280;70563;50.084;14.468;2023-08-17T08:23:49;98967.22;;;37.13;27.87
81057;BME280;70563;50.084;14.468;2023-08-17T08:26:14;98966.28;;;36.65;28.77
81057;BME280;70563;50.084;14.468;2023-08-17T08:28:39;98953.13;;;35.57;30.08
81057;BME280;70563;50.084;14.468;2023-08-17T08:31:05;98960.19;;;36.72;28.52
81057;BME280;70563;50.084;14.468;2023-08-17T08:33:31;98964.34;;;36.94;27.43
81057;BME280;70563;50.084;14.468;2023-08-17T08:35:57;98962.31;;;38.18;26.12
81057;BME280;70563;50.084;14.468;2023-08-17T08:38:22;98958.91;;;39.94;23.57
81057;BME280;70563;50.084;14.468;2023-08-17T08:40:48;98964.16;;;41.30;22.08
81057;BME280;70563;50.084;14.468;2023-08-17T08:43:14;98957.66;;;41.52;21.18
81057;BME280;70563;50.084;14.468;2023-08-17T08:45:41;98954.66;;;40.90;21.99
81057;BME280;70563;50.084;14.468;2023-08-17T08:48:18;98957.06;;;42.46;20.56
81057;BME280;70563;50.084;14.468;2023-08-17T08:50:45;98962.75;;;42.71;20.39
81057;BME280;70563;50.084;14.468;2023-08-17T08:53:15;98947.78;;;43.12;19.89
81057;BME280;70563;50.084;14.468;2023-08-17T08:55:49;98949.34;;;43.13;19.45
81057;BME280;70563;50.084;14.468;2023-08-17T08:58:19;98943.16;;;44.68;17.80
81057;BME280;70563;50.084;14.468;2023-08-17T09:00:47;98937.84;;;43.28;20.08
81057;BME280;70563;50.084;14.468;2023-08-17T09:03:15;98938.25;;;43.48;20.01
81057;BME280;70563;50.084;14.468;2023-08-17T09:05:44;98934.78;;;44.61;18.29
81057;BME280;70563;50.084;14.468;2023-08-17T09:08:12;98931.31;;;40.91;22.33
81057;BME280;70563;50.084;14.468;2023-08-17T09:10:38;98928.94;;;39.96;23.54
81057;BME280;70563;50.084;14.468;2023-08-17T09:13:04;98927.06;;;40.97;22.39
81057;BME280;70563;50.084;14.468;2023-08-17T09:15:29;98931.88;;;43.01;19.85
81057;BME280;70563;50.084;14.468;2023-08-17T09:17:55;98930.50;;;42.49;20.53
81057;BME280;70563;50.084;14.468;2023-08-17T09:23:09;98927.13;;;43.13;19.92
81057;BME280;70563;50.084;14.468;2023-08-17T09:25:38;98920.63;;;44.30;18.77
81057;BME280;70563;50.084;14.468;2023-08-17T09:28:10;98917.41;;;42.42;20.16
81057;BME280;70563;50.084;14.468;2023-08-17T09:33:20;98910.66;;;45.10;17.77
81057;BME280;70563;50.084;14.468;2023-08-17T09:35:46;98915.09;;;45.52;17.56
81057;BME280;70563;50.084;14.468;2023-08-17T09:38:11;98904.91;;;43.59;19.23
81057;BME280;70563;50.084;14.468;2023-08-17T09:40:37;98908.81;;;44.85;17.75
81057;BME280;70563;50.084;14.468;2023-08-17T09:43:02;98907.75;;;45.24;17.20
81057;BME280;70563;50.084;14.468;2023-08-17T09:45:28;98901.25;;;45.38;17.23
81057;BME280;70563;50.084;14.468;2023-08-17T09:47:54;98907.22;;;42.96;18.96
81057;BME280;70563;50.084;14.468;2023-08-17T09:50:22;98895.31;;;42.71;19.70
81057;BME280;70563;50.084;14.468;2023-08-17T09:52:52;98894.56;;;43.63;18.87
81057;BME280;70563;50.084;14.468;2023-08-17T09:55:18;98889.91;;;45.18;17.42
81057;BME280;70563;50.084;14.468;2023-08-17T09:57:45;98891.91;;;44.47;18.44
81057;BME280;70563;50.084;14.468;2023-08-17T10:00:12;98892.59;;;45.73;16.73
81057;BME280;70563;50.084;14.468;2023-08-17T10:02:38;98890.13;;;44.82;17.80
81057;BME280;70563;50.084;14.468;2023-08-17T10:05:04;98893.16;;;46.30;16.52
81057;BME280;70563;50.084;14.468;2023-08-17T10:07:31;98885.06;;;46.04;16.06
81057;BME280;70563;50.084;14.468;2023-08-17T10:10:04;98889.72;;;46.76;15.39
81057;BME280;70563;50.084;14.468;2023-08-17T10:12:37;98885.22;;;44.38;17.88
81057;BME280;70563;50.084;14.468;2023-08-17T10:15:11;98882.72;;;44.58;18.20
81057;BME280;70563;50.084;14.468;2023-08-17T10:17:55;98886.16;;;44.87;17.43
81057;BME280;70563;50.084;14.468;2023-08-17T10:20:24;98885.03;;;45.70;16.39
81057;BME280;70563;50.084;14.468;2023-08-17T10:23:17;98883.34;;;45.39;16.98
81057;BME280;70563;50.084;14.468;2023-08-17T10:25:44;98883.75;;;45.82;16.60
81057;BME280;70563;50.084;14.468;2023-08-17T10:28:10;98886.94;;;46.45;16.00
81057;BME280;70563;50.084;14.468;2023-08-17T10:30:37;98884.81;;;46.26;16.50
81057;BME280;70563;50.084;14.468;2023-08-17T10:33:05;98865.88;;;40.35;23.19
81057;BME280;70563;50.084;14.468;2023-08-17T10:35:31;98866.59;;;37.99;26.39
81057;BME280;70563;50.084;14.468;2023-08-17T10:37:58;98863.09;;;36.28;29.46
81057;BME280;70563;50.084;14.468;2023-08-17T10:40:28;98865.84;;;37.15;28.98
81057;BME280;70563;50.084;14.468;2023-08-17T10:42:54;98862.81;;;38.84;25.70
81057;BME280;70563;50.084;14.468;2023-08-17T10:45:34;98854.81;;;37.31;28.03
81057;BME280;70563;50.084;14.468;2023-08-17T10:48:26;98858.13;;;35.93;30.23
81057;BME280;70563;50.084;14.468;2023-08-17T10:51:00;98863.09;;;36.56;28.72
81057;BME280;70563;50.084;14.468;2023-08-17T10:53:26;98861.28;;;36.20;30.16
81057;BME280;70563;50.084;14.468;2023-08-17T10:55:57;98859.25;;;37.20;27.59
81057;BME280;70563;50.084;14.468;2023-08-17T10:58:22;98854.34;;;39.43;24.94
81057;BME280;70563;50.084;14.468;2023-08-17T11:00:54;98847.69;;;39.74;24.34
81057;BME280;70563;50.084;14.468;2023-08-17T11:03:20;98843.59;;;37.56;27.05
81057;BME280;70563;50.084;14.468;2023-08-17T11:05:54;98834.13;;;35.78;30.84
81057;BME280;70563;50.084;14.468;2023-08-17T11:08:32;98852.22;;;35.30;31.76
81057;BME280;70563;50.084;14.468;2023-08-17T11:11:05;98850.50;;;38.20;26.96
81057;BME280;70563;50.084;14.468;2023-08-17T11:13:35;98849.53;;;40.56;23.08
81057;BME280;70563;50.084;14.468;2023-08-17T11:16:02;98850.59;;;39.84;23.69
81057;BME280;70563;50.084;14.468;2023-08-17T11:18:28;98845.06;;;40.48;23.21
81057;BME280;70563;50.084;14.468;2023-08-17T11:20:54;98837.69;;;39.16;24.92
81057;BME280;70563;50.084;14.468;2023-08-17T11:23:20;98842.44;;;36.78;27.74
81057;BME280;70563;50.084;14.468;2023-08-17T11:25:45;98836.06;;;36.17;28.77
81057;BME280;70563;50.084;14.468;2023-08-17T11:28:11;98831.00;;;36.32;28.83
81057;BME280;70563;50.084;14.468;2023-08-17T11:30:38;98827.13;;;35.80;29.71
81057;BME280;70563;50.084;14.468;2023-08-17T11:33:04;98829.78;;;36.17;28.85
81057;BME280;70563;50.084;14.468;2023-08-17T11:35:30;98824.69;;;35.91;29.39
81057;BME280;70563;50.084;14.468;2023-08-17T11:37:56;98818.69;;;35.61;29.82
81057;BME280;70563;50.084;14.468;2023-08-17T11:40:22;98822.69;;;35.14;30.77
81057;BME280;70563;50.084;14.468;2023-08-17T11:42:48;98829.00;;;35.39;30.88
81057;BME280;70563;50.084;14.468;2023-08-17T11:45:14;98828.84;;;36.69;29.38
81057;BME280;70563;50.084;14.468;2023-08-17T11:47:40;98822.78;;;36.20;29.83
81057;BME280;70563;50.084;14.468;2023-08-17T11:50:11;98824.94;;;37.84;27.33
81057;BME280;70563;50.084;14.468;2023-08-17T11:52:37;98822.19;;;39.57;24.88
81057;BME280;70563;50.084;14.468;2023-08-17T11:55:04;98824.56;;;40.94;22.43
81057;BME280;70563;50.084;14.468;2023-08-17T11:57:34;98815.91;;;37.49;27.77
81057;BME280;70563;50.084;14.468;2023-08-17T12:00:00;98816.69;;;39.61;24.41
81057;BME280;70563;50.084;14.468;2023-08-17T12:02:26;98824.25;;;38.46;25.62
81057;BME280;70563;50.084;14.468;2023-08-17T12:04:53;98819.34;;;38.78;25.29
81057;BME280;70563;50.084;14.468;2023-08-17T12:07:19;98823.19;;;37.92;26.76
81057;BME280;70563;50.084;14.468;2023-08-17T12:09:48;98828.25;;;39.40;24.30
81057;BME280;70563;50.084;14.468;2023-08-17T12:12:23;98819.69;;;41.28;21.83
81057;BME280;70563;50.084;14.468;2023-08-17T12:14:49;98807.41;;;41.88;21.26
81057;BME280;70563;50.084;14.468;2023-08-17T12:17:15;98800.53;;;40.23;23.38
81057;BME280;70563;50.084;14.468;2023-08-17T12:19:44;98800.09;;;37.46;27.00
81057;BME280;70563;50.084;14.468;2023-08-17T12:22:12;98801.50;;;36.16;28.92
81057;BME280;70563;50.084;14.468;2023-08-17T12:24:38;98794.34;;;35.10;30.44
81057;BME280;70563;50.084;14.468;2023-08-17T12:27:07;98785.84;;;34.79;31.91
81057;BME280;70563;50.084;14.468;2023-08-17T12:29:32;98785.72;;;34.30;32.54
81057;BME280;70563;50.084;14.468;2023-08-17T12:31:58;98785.31;;;34.85;31.78
81057;BME280;70563;50.084;14.468;2023-08-17T12:34:24;98780.84;;;36.51;28.85
81057;BME280;70563;50.084;14.468;2023-08-17T12:36:50;98777.50;;;35.61;30.35
81057;BME280;70563;50.084;14.468;2023-08-17T12:39:16;98772.50;;;34.44;32.35
81057;BME280;70563;50.084;14.468;2023-08-17T12:41:41;98775.44;;;33.13;34.71
81057;BME280;70563;50.084;14.468;2023-08-17T12:44:08;98773.84;;;32.74;35.34
81057;BME280;70563;50.084;14.468;2023-08-17T12:46:34;98774.09;;;32.34;35.53
81057;BME280;70563;50.084;14.468;2023-08-17T12:49:00;98760.19;;;31.09;38.15
81057;BME280;70563;50.084;14.468;2023-08-17T12:51:25;98761.41;;;30.63;38.82
81057;BME280;70563;50.084;14.468;2023-08-17T12:53:50;98760.38;;;30.19;38.44